Friday, January 19, 2018, 3:59 AM GMT
Back to Local

CWFQ, Frelighsburg

Location: , , Canada Lat: 45.05
Local Time: 3:59 AM GMT ( 3:59 GMT) Lon: -72.833
Time Zone: GMT Elev: 498 ft

Show me the last for .
Show Decoded

2018-01-19 03:00 METAR CWFQ 190300Z AUTO 16002KT M06/M08 RMK AO1 SOG 19 6002 SLP128 T10621076 =
2018-01-19 02:00 METAR CWFQ 190200Z AUTO 17002KT M06/M08 RMK AO1 SOG 20 0000 SLP128 T10611076 =
2018-01-19 01:00 METAR CWFQ 190100Z AUTO 17002KT M06/M08 RMK AO1 SOG 16 0001 SLP128 T10611077 =
2018-01-19 00:00 METAR CWFQ 190000Z AUTO 17002KT M06/M08 RMK AO1 SOG 20 3003 SLP130 T10601078 =
2018-01-18 23:00 METAR CWFQ 182300Z AUTO 18002KT M06/M08 RMK AO1 SOG 20 1004 SLP128 T10581080 =
2018-01-18 22:00 METAR CWFQ 182200Z AUTO 22002KT M06/M08 RMK AO1 SOG 20 3001 SLP127 T10551083 =
2018-01-18 21:00 METAR CWFQ 182100Z AUTO 22002KT M05/M08 RMK AO1 SOG 20 3001 SLP127 T10531083 =
2018-01-18 20:00 METAR CWFQ 182000Z AUTO 20003KT M05/M08 RMK AO1 SOG 19 7004 SLP124 T10511082 =
2018-01-18 19:00 METAR CWFQ 181900Z AUTO 20003KT M05/M08 RMK AO1 SOG 17 6010 SLP126 T10511075 =
2018-01-18 18:00 METAR CWFQ 181800Z AUTO 21003KT M05/M09 RMK AO1 SOG 16 7012 SLP126 T10521087 =
2018-01-18 17:00 METAR CWFQ 181700Z AUTO 22003KT M05/M09 RMK AO1 SOG 17 8010 SLP129 T10541087 =
2018-01-18 16:00 METAR CWFQ 181600Z AUTO 20003KT M06/M09 RMK AO1 SOG 17 0001 SLP137 T10641092 =
2018-01-18 15:00 METAR CWFQ 181500Z AUTO 18005KT M07/M10 RMK AO1 SOG 19 3001 SLP139 T10651102 =
2018-01-18 14:00 METAR CWFQ 181400Z AUTO 17005KT M08/M11 RMK AO1 SOG 19 3001 SLP139 T10821107 =
2018-01-18 13:00 METAR CWFQ 181300Z AUTO 18006KT M09/M11 RMK AO1 SOG 19 6007 SLP136 T10871109 =
2018-01-18 12:00 METAR CWFQ 181200Z AUTO 18006KT M09/M11 RMK AO1 SOG 19 6012 SLP138 T10871108 =
2018-01-18 11:00 METAR CWFQ 181100Z AUTO 18006KT M09/M11 RMK AO1 SOG 19 6021 SLP138 T10871107 =
2018-01-18 10:00 METAR CWFQ 181000Z AUTO 17005KT M09/M11 RMK AO1 SOG 20 7023 SLP143 T10881109 =
2018-01-18 09:00 METAR CWFQ 180900Z AUTO 17005KT M09/M11 RMK AO1 SOG 20 8010 SLP151 T10911113 =
2018-01-18 08:00 METAR CWFQ 180800Z AUTO 17005KT M09/M12 RMK AO1 SOG 20 8007 SLP160 T10921117 =
2018-01-18 07:00 METAR CWFQ 180700Z AUTO 20002KT M09/M10 RMK AO1 SOG 20 5005 SLP167 T10861101 =
2018-01-18 06:00 METAR CWFQ 180600Z AUTO 19002KT M10/M11 RMK AO1 SOG 20 6021 SLP161 T10961110 =
2018-01-18 05:00 METAR CWFQ 180500Z AUTO 17003KT M10/M12 RMK AO1 SOG 19 6022 SLP168 T10981115 =
2018-01-18 04:00 METAR CWFQ 180400Z AUTO 19004KT M08/M12 RMK AO1 SOG 19 8024 SLP172 T10751120 =

Support USWX by starting your Amazon purchase here.